createdAt,value
2022-09-18T00:04:27.895Z,99.90
2022-09-18T00:09:30.673Z,99.90
2022-09-18T00:14:33.551Z,99.90
2022-09-18T00:19:36.377Z,99.90
2022-09-18T00:24:39.198Z,99.90
2022-09-18T00:29:42.001Z,99.90
2022-09-18T00:34:44.810Z,99.90
2022-09-18T00:39:47.811Z,99.90
2022-09-18T00:44:50.654Z,99.90
2022-09-18T00:50:12.787Z,99.90
2022-09-18T00:55:18.662Z,99.90
2022-09-18T01:00:22.718Z,99.90
2022-09-18T01:05:58.077Z,99.90
2022-09-18T01:11:41.881Z,99.90
2022-09-18T01:16:59.050Z,99.90
2022-09-18T01:22:31.688Z,99.90
2022-09-18T01:28:11.743Z,99.90
2022-09-18T01:33:35.571Z,99.90
2022-09-18T01:38:57.381Z,99.90
2022-09-18T01:44:16.662Z,99.90
2022-09-18T01:49:29.623Z,99.90
2022-09-18T01:54:38.951Z,99.90
2022-09-18T02:00:09.465Z,99.90
2022-09-18T02:05:31.681Z,99.90
2022-09-18T02:10:40.730Z,99.90
2022-09-18T02:15:46.003Z,99.90
2022-09-18T02:20:49.766Z,99.90
2022-09-18T02:26:00.913Z,99.90
2022-09-18T02:31:03.922Z,99.90
2022-09-18T02:36:23.467Z,99.90
2022-09-18T02:42:21.754Z,99.90
2022-09-18T02:47:52.168Z,99.90
2022-09-18T02:53:18.289Z,99.90
2022-09-18T02:58:39.625Z,99.90
2022-09-18T03:03:42.569Z,99.90
2022-09-18T03:08:46.384Z,99.90
2022-09-18T03:13:49.218Z,99.90
2022-09-18T03:18:51.899Z,99.90
2022-09-18T03:23:55.184Z,99.90
2022-09-18T03:28:57.947Z,99.90
2022-09-18T03:34:00.773Z,99.90
2022-09-18T03:39:04.344Z,99.90
2022-09-18T03:44:07.146Z,99.90
2022-09-18T03:49:09.923Z,99.90
2022-09-18T03:54:12.775Z,99.90
2022-09-18T03:59:15.543Z,99.90
2022-09-18T04:04:18.821Z,99.90
2022-09-18T04:09:21.833Z,99.90
2022-09-18T04:14:29.290Z,99.90
2022-09-18T04:19:32.853Z,99.90
2022-09-18T04:24:36.424Z,99.90
2022-09-18T04:29:39.152Z,99.90
2022-09-18T04:34:42.956Z,99.90
2022-09-18T04:39:47.080Z,99.90
2022-09-18T04:44:49.910Z,99.90
2022-09-18T04:49:53.942Z,99.90
2022-09-18T04:54:57.056Z,99.90
2022-09-18T04:59:59.742Z,99.90
2022-09-18T05:05:02.436Z,99.90
2022-09-18T05:10:08.744Z,99.90
2022-09-18T05:15:12.317Z,99.90
2022-09-18T05:20:15.286Z,99.90
2022-09-18T05:25:19.528Z,99.90
2022-09-18T05:30:23.872Z,99.90
2022-09-18T05:35:29.353Z,99.90
2022-09-18T05:40:35.701Z,99.90
2022-09-18T05:45:38.528Z,99.90
2022-09-18T05:50:43.262Z,99.90
2022-09-18T05:55:46.102Z,99.90
2022-09-18T06:00:50.945Z,99.90
2022-09-18T06:05:55.372Z,99.90
2022-09-18T06:11:01.587Z,99.90
2022-09-18T06:16:04.628Z,99.80
2022-09-18T06:21:07.609Z,98.50
2022-09-18T06:26:14.761Z,98.30
2022-09-18T06:31:18.136Z,98.00
2022-09-18T06:36:21.011Z,98.20
2022-09-18T06:41:26.801Z,98.70
2022-09-18T06:46:29.675Z,99.20
2022-09-18T06:51:32.452Z,99.40
2022-09-18T06:56:35.318Z,99.50
2022-09-18T07:01:38.346Z,99.30
2022-09-18T07:06:45.886Z,99.30
2022-09-18T07:11:48.726Z,99.50
2022-09-18T07:16:51.441Z,99.10
2022-09-18T07:21:54.366Z,98.70
2022-09-18T07:26:58.931Z,98.50
2022-09-18T07:32:01.762Z,97.30
2022-09-18T07:37:05.003Z,97.20
2022-09-18T07:42:09.035Z,96.00
2022-09-18T07:47:12.866Z,94.70
2022-09-18T07:52:15.619Z,94.20
2022-09-18T07:57:18.929Z,93.80
2022-09-18T08:02:21.846Z,94.20
2022-09-18T08:07:27.435Z,94.20
2022-09-18T08:12:32.008Z,94.50
2022-09-18T08:17:34.806Z,94.20
2022-09-18T08:22:41.792Z,94.20
2022-09-18T08:27:44.807Z,93.50
2022-09-18T08:32:47.772Z,93.40
2022-09-18T08:37:50.668Z,93.60
2022-09-18T08:43:14.860Z,93.30
2022-09-18T08:48:28.098Z,93.50
2022-09-18T08:53:41.537Z,92.80
2022-09-18T08:58:51.562Z,91.80
2022-09-18T09:04:14.722Z,92.10
2022-09-18T09:09:33.009Z,91.30
2022-09-18T09:15:01.938Z,90.80
2022-09-18T09:20:48.587Z,90.00
2022-09-18T09:26:12.020Z,90.60
2022-09-18T09:31:19.582Z,90.60
2022-09-18T09:36:28.628Z,90.00
2022-09-18T09:41:59.283Z,89.50
2022-09-18T09:47:57.772Z,89.70
2022-09-18T09:53:07.265Z,89.20
2022-09-18T09:58:38.084Z,89.00
2022-09-18T10:04:07.096Z,89.70
2022-09-18T10:09:52.979Z,89.90
2022-09-18T10:15:14.053Z,89.60
2022-09-18T10:20:27.883Z,89.60
2022-09-18T10:25:46.500Z,89.90
2022-09-18T10:31:10.809Z,88.40
2022-09-18T10:36:37.333Z,88.90
2022-09-18T10:41:40.708Z,90.10
2022-09-18T10:47:09.952Z,88.70
2022-09-18T10:52:38.029Z,86.10
2022-09-18T10:57:46.926Z,86.70
2022-09-18T11:02:53.723Z,85.50
2022-09-18T11:08:00.610Z,84.10
2022-09-18T11:13:05.231Z,81.30
2022-09-18T11:18:15.965Z,81.00
2022-09-18T11:23:26.880Z,80.60
2022-09-18T11:28:32.418Z,80.70
2022-09-18T11:33:57.804Z,81.50
2022-09-18T11:39:03.214Z,79.90
2022-09-18T11:44:27.895Z,79.00
2022-09-18T11:50:15.192Z,78.00
2022-09-18T11:55:48.239Z,79.50
2022-09-18T12:01:17.265Z,78.70
2022-09-18T12:06:53.608Z,81.00
2022-09-18T12:12:02.705Z,79.20
2022-09-18T12:17:36.237Z,79.30
2022-09-18T12:22:55.724Z,79.30
2022-09-18T12:28:51.523Z,79.40
2022-09-18T12:34:02.164Z,77.20
2022-09-18T12:39:26.070Z,71.70
2022-09-18T12:45:02.643Z,70.60
2022-09-18T12:50:15.176Z,70.60
2022-09-18T12:55:59.771Z,71.80
2022-09-18T13:01:22.453Z,70.90
2022-09-18T13:06:41.294Z,69.30
2022-09-18T13:11:51.244Z,68.40
2022-09-18T13:17:01.326Z,68.00
2022-09-18T13:22:17.640Z,68.00
2022-09-18T13:27:24.486Z,65.40
2022-09-18T13:32:37.389Z,65.70
2022-09-18T13:37:42.626Z,65.00
2022-09-18T13:42:45.821Z,64.60
2022-09-18T13:48:19.444Z,65.20
2022-09-18T13:53:40.791Z,66.50
2022-09-18T13:58:57.500Z,66.20
2022-09-18T14:04:00.313Z,68.40
2022-09-18T14:09:44.918Z,68.50
2022-09-18T14:15:06.772Z,69.40
2022-09-18T14:20:28.252Z,70.30
2022-09-18T14:25:52.005Z,70.20
2022-09-18T14:31:37.802Z,68.90
2022-09-18T14:36:50.705Z,68.10
2022-09-18T14:42:34.124Z,68.90
2022-09-18T14:47:38.242Z,67.10
2022-09-18T14:52:44.096Z,68.20
2022-09-18T14:58:00.825Z,69.20
2022-09-18T15:03:29.119Z,70.90
2022-09-18T15:08:32.123Z,72.90
2022-09-18T15:13:38.043Z,73.10
2022-09-18T15:18:42.831Z,73.00
2022-09-18T15:23:45.716Z,72.90
2022-09-18T15:28:51.856Z,72.80
2022-09-18T15:34:05.464Z,73.00
2022-09-18T15:39:35.054Z,72.30
2022-09-18T15:44:37.863Z,71.60
2022-09-18T15:49:40.728Z,71.00
2022-09-18T15:55:05.512Z,71.20
2022-09-18T16:00:24.726Z,72.10
2022-09-18T16:05:31.031Z,74.00
2022-09-18T16:10:42.549Z,75.80
2022-09-18T16:15:47.789Z,77.00
2022-09-18T16:20:53.986Z,77.20
2022-09-18T16:26:21.580Z,78.10
2022-09-18T16:31:32.982Z,78.60
2022-09-18T16:36:42.043Z,78.90
2022-09-18T16:41:49.177Z,79.70
2022-09-18T16:46:52.963Z,80.20
2022-09-18T16:51:55.975Z,80.70
2022-09-18T16:57:23.860Z,81.60
2022-09-18T17:02:26.846Z,82.60
2022-09-18T17:07:31.296Z,83.40
2022-09-18T17:12:34.071Z,83.90
2022-09-18T17:17:41.916Z,84.40
2022-09-18T17:22:46.023Z,85.00
2022-09-18T17:27:52.732Z,86.30
2022-09-18T17:32:55.620Z,87.10
2022-09-18T17:37:58.497Z,87.60
2022-09-18T17:43:01.497Z,89.00
2022-09-18T17:48:05.873Z,89.70
2022-09-18T17:53:09.637Z,90.90
2022-09-18T17:58:24.980Z,90.80
2022-09-18T18:03:28.553Z,91.60
2022-09-18T18:08:31.490Z,91.60
2022-09-18T18:13:40.645Z,92.10
2022-09-18T18:18:49.770Z,92.40
2022-09-18T18:24:03.494Z,92.50
2022-09-18T18:29:10.853Z,93.00
2022-09-18T18:34:13.836Z,93.10
2022-09-18T18:39:17.146Z,93.00
2022-09-18T18:44:20.275Z,93.00
2022-09-18T18:49:23.404Z,93.20
2022-09-18T18:54:26.306Z,93.20
2022-09-18T18:59:29.179Z,93.60
2022-09-18T19:04:34.662Z,93.70
2022-09-18T19:09:37.366Z,94.00
2022-09-18T19:14:40.171Z,93.50
2022-09-18T19:19:43.020Z,93.70
2022-09-18T19:24:45.820Z,93.90
2022-09-18T19:29:49.479Z,93.90
2022-09-18T19:34:52.304Z,94.10
2022-09-18T19:39:55.100Z,94.50
2022-09-18T19:45:03.787Z,94.80
2022-09-18T19:50:16.736Z,94.50
2022-09-18T19:55:23.145Z,94.70
2022-09-18T20:00:26.850Z,94.80
2022-09-18T20:05:29.833Z,94.90
2022-09-18T20:10:35.805Z,95.20
2022-09-18T20:15:39.152Z,95.40
2022-09-18T20:20:42.954Z,95.40
2022-09-18T20:25:45.898Z,95.30
2022-09-18T20:30:49.586Z,95.30
2022-09-18T20:35:59.437Z,95.50
2022-09-18T20:41:15.259Z,95.20
2022-09-18T20:46:20.207Z,95.20
2022-09-18T20:51:32.488Z,95.10
2022-09-18T20:56:42.315Z,95.00
2022-09-18T21:01:48.621Z,95.00
2022-09-18T21:06:56.520Z,95.00
2022-09-18T21:11:59.706Z,94.80
2022-09-18T21:17:04.522Z,94.80
2022-09-18T21:22:07.694Z,94.90
2022-09-18T21:27:10.813Z,94.60
2022-09-18T21:32:13.582Z,94.40
2022-09-18T21:37:16.618Z,94.30
2022-09-18T21:42:19.628Z,94.20
2022-09-18T21:47:25.406Z,94.10
2022-09-18T21:52:28.925Z,94.10
2022-09-18T21:57:31.780Z,94.10
2022-09-18T22:02:34.786Z,94.10
2022-09-18T22:07:37.616Z,94.00
2022-09-18T22:12:41.272Z,94.00
2022-09-18T22:17:44.133Z,94.00
2022-09-18T22:22:47.519Z,93.80
2022-09-18T22:27:50.566Z,93.50
2022-09-18T22:32:53.283Z,93.50
2022-09-18T22:37:56.089Z,93.50
2022-09-18T22:42:59.074Z,93.30
2022-09-18T22:48:02.034Z,93.20
2022-09-18T22:53:05.004Z,92.90
2022-09-18T22:58:08.113Z,92.80
2022-09-18T23:03:11.674Z,92.70
2022-09-18T23:08:14.592Z,92.60
2022-09-18T23:13:17.650Z,92.50
2022-09-18T23:18:20.454Z,92.30
2022-09-18T23:23:23.958Z,92.20
2022-09-18T23:28:26.784Z,91.90
2022-09-18T23:33:29.623Z,92.40
2022-09-18T23:38:32.936Z,92.10
2022-09-18T23:43:36.021Z,92.10
2022-09-18T23:48:38.929Z,92.10
2022-09-18T23:53:41.949Z,92.40
2022-09-18T23:58:45.029Z,92.50
